Hargeisa Airport

Current Flights

Info
Name: Hargeisa Airport
Identifier:  HGA/HCMH
Local Time:  20. May 06:23
City
Hargeisa
  Somalia

Flights per Day
9 flights
Distance: 813km (505mi)
Punctuality
95% (0 flights per day delayed)
Delay Average: 34 minutes
Current Weather
 32 C (Humidity: 38%)
  12kt (22km/h / 13mph) from 180°
  Broken clouds at 3,200 feet (975 meter)
  9km (6 mi.)
 METAR HCMH 191200Z 18012KT 9999 BKN032 32/16 Q1015

Current Delays

Departures
N/A
Arrivals
N/A

Destinations

Top Destinations
Airport Flights
per week
Seats
per week
  Addis Ababa (ADD) 7 1,043 1 149
  Dubai (DXB) 7 1,295 1 185
  Sharjah (SHJ) <1 623 0 89

Airlines & Planes

Top Airlines
Airline Flights
per Day
Seats
per Day
  Ethiopian Airlines 1 149
  flydubai 1 185
  Air Arabia <1 89
Top Plane Types
Manufacturer Model Flights Seats
Boeing B737-800 1.5/day 248/day 248.06666666666666
Boeing B737-700 1.1/day 86/day 86.53333333333333
Airbus A320 0.5/day 89/day 89.6